Time;durP1;ratioP1;P1;durP2;ratioP2;P2;SDS_P1;SDS_P2;PMS_P1;PMS_P2;Temp;Humidity;BMP_temperature;BMP_pressure;BME280_temperature;BME280_humidity;BME280_pressure;Samples;Min_cycle;Max_cycle;Signal;HPM_P1;HPM_P2
2021/07/21 00:02:01;;;;;;;5.10;2.90;;;;;;;15.89;75.52;100513.91;93036;1208;67485;-58
2021/07/21 00:04:14;;;;;;;5.30;2.80;;;;;;;15.88;75.80;100512.23;93052;1208;67574;-58
2021/07/21 00:06:22;;;;;;;5.00;3.00;;;;;;;15.80;75.71;100510.61;93041;1208;85671;-58
2021/07/21 00:08:29;;;;;;;4.20;3.10;;;;;;;15.81;75.88;100508.73;93019;1208;75279;-58
2021/07/21 00:10:39;;;;;;;6.80;3.20;;;;;;;15.82;75.73;100515.86;92991;1206;80960;-59
2021/07/21 00:15:21;;;;;;;4.80;3.20;;;;;;;15.77;75.83;100518.38;93067;1208;69668;-58
2021/07/21 00:17:33;;;;;;;6.30;3.30;;;;;;;15.77;75.92;100516.50;93018;1208;87004;-58
2021/07/21 00:22:08;;;;;;;6.40;3.70;;;;;;;15.79;76.05;100529.92;93012;1208;81871;-60
2021/07/21 00:24:16;;;;;;;6.50;3.50;;;;;;;15.80;76.25;100526.96;92993;1208;66732;-59
2021/07/21 00:26:24;;;;;;;4.60;3.80;;;;;;;15.85;76.19;100529.85;93026;1208;67796;-59
2021/07/21 00:28:38;;;;;;;7.00;3.90;;;;;;;15.91;76.04;100528.98;93021;1208;86482;-58
2021/07/21 00:30:47;;;;;;;4.80;3.50;;;;;;;15.85;76.46;100523.56;93037;1208;75892;-59
2021/07/21 00:33:00;;;;;;;7.70;3.60;;;;;;;15.85;76.38;100518.12;92999;1208;82418;-58
2021/07/21 00:35:16;;;;;;;6.70;3.50;;;;;;;15.87;76.13;100516.88;93038;1203;69328;-59
2021/07/21 00:37:24;;;;;;;6.10;3.70;;;;;;;15.89;76.39;100513.91;93032;1213;69416;-60
2021/07/21 00:39:31;;;;;;;5.80;3.30;;;;;;;15.91;76.31;100519.97;93025;1208;86401;-59
2021/07/21 00:41:40;;;;;;;6.20;3.70;;;;;;;15.84;76.35;100517.31;93017;1208;73983;-60
2021/07/21 00:43:48;;;;;;;4.60;3.30;;;;;;;15.87;76.32;100519.59;93001;1208;81728;-60
2021/07/21 00:45:55;;;;;;;6.50;3.50;;;;;;;15.87;76.21;100521.48;92986;1208;67239;-60
2021/07/21 00:48:07;;;;;;;6.70;3.70;;;;;;;15.85;76.42;100524.41;93002;1208;67627;-60
2021/07/21 00:50:16;;;;;;;7.00;4.30;;;;;;;15.75;76.54;100526.80;93034;1208;86815;-58
2021/07/21 00:52:26;;;;;;;5.80;3.70;;;;;;;15.72;76.58;100520.94;93029;1208;75378;-58
2021/07/21 00:54:35;;;;;;;9.00;3.80;;;;;;;15.69;76.64;100516.77;93051;1208;81363;-57
2021/07/21 00:56:43;;;;;;;6.60;4.00;;;;;;;15.66;76.46;100519.92;93042;1208;65390;-57
2021/07/21 00:58:51;;;;;;;6.10;3.70;;;;;;;15.67;76.61;100524.33;93058;1208;70003;-57
2021/07/21 01:00:59;;;;;;;5.80;3.60;;;;;;;15.65;76.74;100523.73;93034;1208;86082;-57
2021/07/21 01:03:10;;;;;;;5.50;3.80;;;;;;;15.57;76.55;100534.88;93009;1208;73931;-59
2021/07/21 01:05:26;;;;;;;4.70;3.80;;;;;;;15.53;76.56;100530.91;93069;1208;81786;-57
2021/07/21 01:07:36;;;;;;;5.90;3.80;;;;;;;15.49;76.71;100529.69;93036;1206;65729;-57
2021/07/21 01:09:47;;;;;;;6.00;4.10;;;;;;;15.47;76.70;100529.05;93085;1208;68235;-58
2021/07/21 01:12:07;;;;;;;6.60;3.90;;;;;;;15.43;76.80;100527.80;93033;1208;86060;-57
2021/07/21 01:14:23;;;;;;;7.00;4.10;;;;;;;15.42;76.69;100530.72;93009;1208;75091;-57
2021/07/21 01:16:40;;;;;;;4.70;3.80;;;;;;;15.40;76.75;100528.23;93016;1203;82940;-60
2021/07/21 01:18:56;;;;;;;8.20;4.00;;;;;;;15.36;76.88;100530.55;93034;1208;65758;-60
2021/07/21 01:22:01;;;;;;;6.80;4.50;;;;;;;15.34;76.78;100529.09;93018;1208;69492;-58
2021/07/21 01:24:26;;;;;;;7.40;4.50;;;;;;;15.22;77.14;100536.26;92816;1211;85861;-60
2021/07/21 01:26:48;;;;;;;7.10;4.00;;;;;;;15.24;77.10;100536.90;92816;1211;73708;-58
2021/07/21 01:28:59;;;;;;;6.50;4.20;;;;;;;15.27;77.06;100540.00;92998;1208;81116;-59
2021/07/21 01:31:13;;;;;;;8.40;4.70;;;;;;;15.26;77.25;100538.35;93041;1206;65923;-57
2021/07/21 01:33:23;;;;;;;6.90;4.30;;;;;;;15.25;77.28;100539.39;93028;1208;68206;-57
2021/07/21 01:35:39;;;;;;;5.60;4.30;;;;;;;15.23;77.33;100543.38;93060;1208;86028;-60
2021/07/21 01:37:57;;;;;;;6.90;4.40;;;;;;;15.23;77.31;100538.78;93028;1208;73560;-60
2021/07/21 01:40:14;;;;;;;6.00;3.90;;;;;;;15.21;77.43;100542.77;93023;1208;80628;-58
2021/07/21 01:42:23;;;;;;;6.60;4.20;;;;;;;15.19;77.63;100537.53;93028;1214;66566;-57
2021/07/21 01:44:37;;;;;;;5.40;3.80;;;;;;;15.14;77.68;100540.06;93006;1208;68905;-58
2021/07/21 01:46:49;;;;;;;6.30;4.40;;;;;;;15.07;77.59;100539.27;93052;1208;86390;-59
2021/07/21 01:49:00;;;;;;;5.70;3.70;;;;;;;14.99;77.75;100547.67;93008;1208;74958;-59
2021/07/21 01:51:10;;;;;;;6.60;4.50;;;;;;;14.95;77.89;100545.57;93008;1208;80144;-57
2021/07/21 01:53:18;;;;;;;8.10;4.40;;;;;;;14.97;77.64;100538.86;93032;1208;68070;-57
2021/07/21 01:55:27;;;;;;;7.00;4.20;;;;;;;14.97;77.82;100544.30;93022;1206;68182;-59
2021/07/21 01:57:38;;;;;;;5.80;4.00;;;;;;;14.95;77.89;100540.97;93039;1208;87038;-59
2021/07/21 01:59:50;;;;;;;5.20;3.90;;;;;;;14.94;78.04;100538.48;93056;1204;74760;-59
2021/07/21 02:02:04;;;;;;;4.80;4.00;;;;;;;14.95;77.77;100546.41;93053;1208;81484;-59
2021/07/21 02:04:13;;;;;;;5.70;4.40;;;;;;;14.91;77.97;100547.06;93038;1206;67689;-59
2021/07/21 02:06:22;;;;;;;5.60;3.40;;;;;;;14.84;77.98;100544.35;93012;1208;67599;-59
2021/07/21 02:08:30;;;;;;;6.30;4.10;;;;;;;14.84;77.95;100551.67;93017;1207;87893;-59
2021/07/21 02:10:39;;;;;;;5.10;4.20;;;;;;;14.78;77.97;100551.48;93061;1208;73788;-57
2021/07/21 02:12:48;;;;;;;6.40;4.30;;;;;;;14.78;78.20;100555.27;93055;1208;82529;-57
2021/07/21 02:14:57;;;;;;;5.60;4.30;;;;;;;14.78;78.02;100549.83;92985;1208;68009;-58
2021/07/21 02:17:10;;;;;;;5.10;3.50;;;;;;;14.75;78.15;100556.50;93067;1203;68911;-59
2021/07/21 02:19:17;;;;;;;7.30;3.90;;;;;;;14.74;78.11;100557.56;93017;1208;87515;-59
2021/07/21 02:21:26;;;;;;;6.00;4.70;;;;;;;14.71;78.32;100566.98;93078;1200;74989;-59
2021/07/21 02:23:35;;;;;;;6.80;4.20;;;;;;;14.71;78.13;100561.55;93013;1208;81784;-59
2021/07/21 02:25:43;;;;;;;7.70;3.70;;;;;;;14.69;78.11;100568.25;93068;1208;65477;-58
2021/07/21 02:27:51;;;;;;;8.20;3.90;;;;;;;14.69;78.05;100566.38;93055;1214;69788;-59
2021/07/21 02:29:59;;;;;;;5.80;4.30;;;;;;;14.63;78.34;100569.93;92989;1208;87545;-57
2021/07/21 02:32:12;;;;;;;5.30;3.90;;;;;;;14.60;78.26;100573.07;93021;1214;73801;-57
2021/07/21 02:34:20;;;;;;;4.50;3.60;;;;;;;14.53;78.34;100571.41;93032;1208;80746;-57
2021/07/21 02:36:31;;;;;;;6.60;4.00;;;;;;;14.49;78.18;100583.73;93051;1208;66837;-56
2021/07/21 02:38:39;;;;;;;6.20;4.10;;;;;;;14.48;78.29;100577.46;93026;1208;68365;-57
2021/07/21 02:40:47;;;;;;;8.40;4.50;;;;;;;14.43;78.61;100579.98;93040;1214;86110;-59
2021/07/21 02:42:55;;;;;;;5.60;4.20;;;;;;;14.35;78.54;100582.07;93042;1212;73594;-59
2021/07/21 02:45:03;;;;;;;6.10;3.80;;;;;;;14.35;78.51;100588.34;93031;1208;80685;-57
2021/07/21 02:47:12;;;;;;;4.90;4.10;;;;;;;14.40;78.60;100585.83;93059;1213;66647;-57
2021/07/21 02:49:23;;;;;;;5.70;4.50;;;;;;;14.43;78.68;100579.14;93102;1212;69080;-57
2021/07/21 02:51:38;;;;;;;5.80;4.30;;;;;;;14.41;78.82;100582.08;93046;1213;87183;-57
2021/07/21 02:53:54;;;;;;;8.20;4.10;;;;;;;14.42;78.73;100582.92;93060;1208;75406;-57
2021/07/21 02:56:10;;;;;;;5.90;4.00;;;;;;;14.38;78.70;100587.93;93012;1208;79862;-59
2021/07/21 02:58:32;;;;;;;6.90;3.90;;;;;;;14.42;79.02;100591.08;93024;1203;67940;-59
2021/07/21 03:00:41;;;;;;;6.10;4.30;;;;;;;14.44;78.90;100587.10;93049;1214;68981;-57
2021/07/21 03:02:52;;;;;;;6.50;5.00;;;;;;;14.44;79.19;100591.69;93056;1208;86073;-57
2021/07/21 03:05:01;;;;;;;6.40;4.00;;;;;;;14.51;79.02;100584.36;93047;1208;74229;-59
2021/07/21 03:07:10;;;;;;;6.30;4.70;;;;;;;14.52;79.09;100586.88;93027;1208;81499;-59
2021/07/21 03:09:25;;;;;;;5.40;4.60;;;;;;;14.60;79.23;100589.38;93029;1208;67334;-59
2021/07/21 03:11:34;;;;;;;7.10;4.90;;;;;;;14.70;79.35;100589.78;93065;1208;68763;-59
2021/07/21 03:13:48;;;;;;;6.50;4.70;;;;;;;14.83;79.42;100598.98;93064;1208;87102;-59
2021/07/21 03:16:00;;;;;;;6.70;4.50;;;;;;;14.89;79.49;100609.02;93035;1208;74889;-57
2021/07/21 03:18:11;;;;;;;7.70;5.20;;;;;;;14.97;79.49;100601.44;93004;1208;81457;-57
2021/07/21 03:20:20;;;;;;;6.00;4.80;;;;;;;15.02;79.38;100604.38;93036;1212;68579;-57
2021/07/21 03:22:30;;;;;;;6.50;5.20;;;;;;;15.09;79.52;100605.19;93053;1208;68437;-58
2021/07/21 03:24:37;;;;;;;7.70;5.80;;;;;;;15.16;79.71;100600.55;93003;1208;86760;-59
2021/07/21 03:26:46;;;;;;;7.50;5.00;;;;;;;15.24;79.53;100596.78;93047;1208;74113;-59
2021/07/21 03:28:55;;;;;;;7.80;4.70;;;;;;;15.32;79.44;100610.14;92994;1208;79977;-59
2021/07/21 03:31:05;;;;;;;8.80;5.10;;;;;;;15.39;79.63;100608.22;93014;1208;68229;-58
2021/07/21 03:33:18;;;;;;;6.60;5.10;;;;;;;15.48;79.71;100609.70;93063;1208;69404;-58
2021/07/21 03:35:32;;;;;;;9.80;5.80;;;;;;;15.57;79.60;100611.13;93080;1208;86126;-58
2021/07/21 03:37:42;;;;;;;;;;;;;;;15.64;79.37;100616.52;93061;1208;74542;-58
2021/07/21 03:39:55;;;;;;;7.50;5.40;;;;;;;15.69;79.29;100617.55;93076;1208;79949;-59
2021/07/21 03:42:04;;;;;;;6.80;5.20;;;;;;;15.73;79.47;100616.07;93045;1206;68682;-59
2021/07/21 03:44:14;;;;;;;7.10;5.20;;;;;;;15.80;79.31;100616.02;93066;1203;68444;-60
2021/07/21 03:46:23;;;;;;;7.10;5.50;;;;;;;15.91;79.31;100621.62;92996;1208;85753;-58
2021/07/21 03:48:31;;;;;;;6.70;5.20;;;;;;;16.69;79.42;100632.20;93031;1208;73790;-58
2021/07/21 03:50:40;;;;;;;7.40;5.10;;;;;;;17.60;78.76;100627.68;93006;1208;82005;-60
2021/07/21 03:52:52;;;;;;;6.70;5.00;;;;;;;17.96;77.77;100632.25;93061;1206;67602;-60
2021/07/21 03:55:04;;;;;;;6.00;4.40;;;;;;;17.99;76.97;100629.86;93071;1208;68575;-59
2021/07/21 03:57:12;;;;;;;8.50;4.90;;;;;;;18.64;77.52;100632.69;93090;1208;86750;-59
2021/07/21 03:59:25;;;;;;;8.10;4.90;;;;;;;19.64;76.57;100638.84;93108;1208;76276;-59
2021/07/21 04:01:34;;;;;;;7.60;5.30;;;;;;;20.42;75.43;100634.34;93020;1208;81219;-58
2021/07/21 04:03:43;;;;;;;8.40;4.90;;;;;;;21.12;74.30;100640.15;93051;1208;65887;-58
2021/07/21 04:05:55;;;;;;;7.20;5.10;;;;;;;21.65;73.28;100636.76;93054;1208;69975;-59
2021/07/21 04:08:04;;;;;;;6.20;4.00;;;;;;;22.21;72.06;100641.02;93027;1208;86595;-59
2021/07/21 04:10:14;;;;;;;7.20;4.50;;;;;;;22.63;70.46;100643.06;93057;1208;76333;-59
2021/07/21 04:12:23;;;;;;;5.10;4.20;;;;;;;23.01;69.11;100640.08;93040;1208;81852;-59
2021/07/21 04:14:32;;;;;;;6.10;4.50;;;;;;;23.43;68.24;100654.69;93032;1213;66506;-60
2021/07/21 04:16:41;;;;;;;8.50;4.10;;;;;;;23.93;67.36;100648.56;93036;1208;68190;-60
2021/07/21 04:18:52;;;;;;;7.10;4.10;;;;;;;24.37;66.19;100645.38;93020;1208;85292;-61
2021/07/21 04:21:04;;;;;;;5.90;4.10;;;;;;;24.40;64.71;100648.44;93057;1206;75260;-59
2021/07/21 04:23:13;;;;;;;5.80;3.90;;;;;;;24.44;64.09;100646.80;93020;1208;81362;-59
2021/07/21 04:25:27;;;;;;;7.50;4.00;;;;;;;24.91;63.26;100652.09;93049;1208;66788;-62
2021/07/21 04:27:37;;;;;;;4.90;3.80;;;;;;;25.08;62.55;100651.77;93059;1214;67801;-57
2021/07/21 04:29:49;;;;;;;5.80;3.80;;;;;;;24.92;61.78;100656.48;93009;1214;87349;-59
2021/07/21 04:31:57;;;;;;;6.40;4.30;;;;;;;24.42;61.29;100657.27;93079;1208;73733;-60
2021/07/21 04:34:07;;;;;;;5.40;3.80;;;;;;;24.14;61.15;100657.78;93052;1208;80398;-60
2021/07/21 04:36:16;;;;;;;6.10;3.90;;;;;;;24.01;60.65;100658.24;93021;1208;65207;-60
2021/07/21 04:38:28;;;;;;;4.90;3.60;;;;;;;23.50;60.63;100659.98;92957;1206;69811;-61
2021/07/21 04:40:43;;;;;;;7.30;4.40;;;;;;;23.06;61.26;100656.64;93025;1208;87331;-60
2021/07/21 04:42:52;;;;;;;6.00;4.40;;;;;;;22.95;62.16;100662.34;93006;1208;75540;-60
2021/07/21 04:44:59;;;;;;;5.10;4.00;;;;;;;23.23;61.89;100670.27;93042;1207;80877;-60
2021/07/21 04:47:09;;;;;;;6.50;4.00;;;;;;;23.80;61.62;100671.16;93009;1208;67041;-61
2021/07/21 04:49:22;;;;;;;5.70;4.10;;;;;;;24.64;60.67;100666.13;93024;1208;69666;-60
2021/07/21 04:51:34;;;;;;;6.50;3.70;;;;;;;25.25;59.94;100666.13;93035;1208;86976;-60
2021/07/21 04:53:42;;;;;;;5.90;3.90;;;;;;;25.82;58.92;100670.42;93039;1215;74398;-60
2021/07/21 04:55:51;;;;;;;5.10;3.50;;;;;;;26.20;58.09;100670.55;93027;1208;80462;-60
2021/07/21 04:57:59;;;;;;;4.30;3.30;;;;;;;26.74;57.06;100661.28;93057;1208;65104;-60
2021/07/21 05:00:09;;;;;;;4.50;3.60;;;;;;;26.40;56.13;100666.79;93070;1208;68977;-60
2021/07/21 05:02:17;;;;;;;3.80;3.30;;;;;;;26.08;55.76;100667.23;93013;1208;85745;-60
2021/07/21 05:04:25;;;;;;;6.30;3.80;;;;;;;25.01;56.12;100676.95;93017;1204;75360;-60
2021/07/21 05:06:34;;;;;;;5.60;3.10;;;;;;;23.89;56.89;100674.23;93007;1208;80276;-61
2021/07/21 05:08:41;;;;;;;6.50;3.30;;;;;;;23.95;57.75;100684.19;93049;1204;66792;-60
2021/07/21 05:10:49;;;;;;;5.00;3.30;;;;;;;24.60;58.08;100678.02;93002;1203;70161;-60
2021/07/21 05:13:01;;;;;;;5.50;3.20;;;;;;;25.45;57.37;100676.31;93038;1206;86868;-60
2021/07/21 05:15:11;;;;;;;4.30;3.10;;;;;;;26.27;56.51;100672.98;93009;1208;73256;-60
2021/07/21 05:17:19;;;;;;;4.80;3.20;;;;;;;26.74;55.52;100678.75;93033;1214;81164;-60
2021/07/21 05:19:27;;;;;;;4.90;3.20;;;;;;;27.26;54.23;100671.64;93002;1208;67604;-60
2021/07/21 05:21:38;;;;;;;5.20;3.30;;;;;;;27.43;53.96;100680.39;93017;1208;68230;-60
2021/07/21 05:23:48;;;;;;;4.80;3.50;;;;;;;27.57;53.32;100680.52;93054;1208;87110;-60
2021/07/21 05:25:56;;;;;;;7.80;3.30;;;;;;;27.93;53.23;100678.97;93034;1208;74271;-59
2021/07/21 05:28:07;;;;;;;4.10;3.10;;;;;;;28.03;52.04;100673.30;93020;1208;82184;-59
2021/07/21 05:30:19;;;;;;;5.10;3.20;;;;;;;27.90;51.18;100679.55;93042;1214;66572;-59
2021/07/21 05:32:26;;;;;;;5.10;3.40;;;;;;;27.98;51.01;100670.56;93059;1208;67685;-59
2021/07/21 05:34:34;;;;;;;4.20;3.00;;;;;;;27.61;50.76;100676.03;93099;1208;86280;-60
2021/07/21 05:36:42;;;;;;;4.40;3.20;;;;;;;27.52;50.88;100684.18;93064;1208;75776;-59
2021/07/21 05:38:50;;;;;;;4.90;3.40;;;;;;;26.91;50.47;100681.14;93018;1208;81248;-60
2021/07/21 05:41:02;;;;;;;5.50;3.60;;;;;;;26.84;50.85;100680.63;93000;1208;68134;-58
2021/07/21 05:43:09;;;;;;;5.30;3.40;;;;;;;26.74;50.54;100675.14;93017;1213;70009;-58
2021/07/21 05:45:17;;;;;;;4.50;3.60;;;;;;;26.60;51.45;100687.99;93042;1212;86002;-60
2021/07/21 05:47:25;;;;;;;5.70;3.90;;;;;;;26.63;51.51;100681.88;93021;1208;76376;-62
2021/07/21 05:49:33;;;;;;;6.00;3.50;;;;;;;26.41;51.71;100687.02;92999;1206;81171;-58
2021/07/21 05:51:40;;;;;;;5.10;3.60;;;;;;;26.56;52.08;100686.94;93027;1208;65345;-59
2021/07/21 05:53:48;;;;;;;6.50;3.70;;;;;;;26.61;50.35;100679.41;93049;1208;68130;-59
2021/07/21 05:55:55;;;;;;;8.60;3.90;;;;;;;26.40;50.78;100696.47;93019;1208;85258;-60
2021/07/21 05:58:03;;;;;;;6.10;3.60;;;;;;;26.27;51.09;100686.83;93045;1208;73965;-60
2021/07/21 06:00:14;;;;;;;5.60;3.60;;;;;;;26.19;51.42;100691.03;93001;1208;80521;-66
2021/07/21 06:02:22;;;;;;;5.80;4.00;;;;;;;26.37;51.73;100693.13;93059;1208;65320;-66
2021/07/21 06:04:30;;;;;;;7.10;4.00;;;;;;;26.47;51.98;100694.19;93020;1208;68902;-65
2021/07/21 06:06:40;;;;;;;5.30;3.40;;;;;;;26.64;51.30;100702.95;93026;1208;87512;-67
2021/07/21 06:08:48;;;;;;;5.10;3.50;;;;;;;26.64;51.56;100692.70;93047;1208;75035;-66
2021/07/21 06:10:56;;;;;;;4.80;3.60;;;;;;;26.49;50.19;100700.27;92976;1208;81812;-61
2021/07/21 06:13:03;;;;;;;5.50;3.60;;;;;;;26.54;50.88;100706.60;93011;1214;67317;-62
2021/07/21 06:15:12;;;;;;;5.40;3.50;;;;;;;26.35;50.59;100711.16;93046;1208;68509;-66
2021/07/21 06:17:22;;;;;;;7.10;3.90;;;;;;;26.42;50.50;100708.08;93045;1208;85924;-66
2021/07/21 06:19:33;;;;;;;5.10;3.40;;;;;;;26.26;50.73;100702.61;93012;1207;74557;-66
2021/07/21 06:21:41;;;;;;;7.20;4.30;;;;;;;26.27;50.53;100709.82;93011;1214;82667;-67
2021/07/21 06:23:49;;;;;;;6.60;3.70;;;;;;;26.16;50.86;100705.45;93005;1208;66196;-66
2021/07/21 06:25:56;;;;;;;5.70;3.70;;;;;;;26.27;51.13;100711.75;93054;1208;67873;-61
2021/07/21 06:28:05;;;;;;;6.00;3.80;;;;;;;26.41;51.55;100709.19;93032;1208;86662;-60
2021/07/21 06:30:15;;;;;;;4.40;3.80;;;;;;;26.28;50.77;100716.20;93068;1208;73730;-65
2021/07/21 06:32:26;;;;;;;4.60;3.60;;;;;;;26.54;51.13;100716.85;93028;1208;80309;-65
2021/07/21 06:34:34;;;;;;;5.30;3.50;;;;;;;26.83;50.77;100707.55;93027;1208;67412;-65
2021/07/21 06:36:41;;;;;;;5.00;3.70;;;;;;;26.93;50.89;100713.00;93029;1208;68873;-65
2021/07/21 06:38:53;;;;;;;6.20;3.70;;;;;;;27.14;49.96;100708.09;93023;1208;86154;-65
2021/07/21 06:41:01;;;;;;;7.70;4.40;;;;;;;26.92;49.60;100708.56;93034;1208;75494;-65
2021/07/21 06:43:09;;;;;;;5.60;3.90;;;;;;;26.69;49.47;100719.53;93004;1208;81922;-65
2021/07/21 06:45:17;;;;;;;6.20;4.00;;;;;;;26.69;49.27;100713.99;93096;1202;66617;-65
2021/07/21 06:47:25;;;;;;;5.70;3.60;;;;;;;26.71;49.23;100712.59;93069;1203;69672;-66
2021/07/21 06:49:36;;;;;;;5.30;3.60;;;;;;;26.58;49.74;100712.41;93007;1208;86725;-64
2021/07/21 06:51:44;;;;;;;5.00;3.80;;;;;;;26.81;50.02;100714.50;93066;1208;74230;-65
2021/07/21 06:53:52;;;;;;;5.20;3.50;;;;;;;26.98;50.08;100717.67;93032;1208;81625;-65
2021/07/21 06:56:01;;;;;;;4.90;3.50;;;;;;;27.25;50.08;100712.43;93002;1212;66231;-60
2021/07/21 06:58:11;;;;;;;5.70;3.60;;;;;;;27.12;48.88;100706.73;93050;1208;67982;-60
2021/07/21 07:00:23;;;;;;;4.70;3.60;;;;;;;27.10;49.00;100715.36;93075;1208;85971;-60
2021/07/21 07:02:34;;;;;;;5.90;3.80;;;;;;;27.44;49.23;100720.91;93078;1202;74858;-60
2021/07/21 07:04:41;;;;;;;5.60;3.80;;;;;;;27.72;49.21;100720.02;93040;1208;80767;-66
2021/07/21 07:06:49;;;;;;;6.00;3.70;;;;;;;28.02;48.75;100732.71;93007;1208;66662;-65
2021/07/21 07:08:57;;;;;;;6.50;3.90;;;;;;;28.07;49.14;100724.38;93058;1208;69864;-66
2021/07/21 07:11:04;;;;;;;6.50;3.70;;;;;;;28.31;48.78;100724.32;93076;1200;86262;-65
2021/07/21 07:13:12;;;;;;;7.40;3.90;;;;;;;28.27;48.49;100729.64;93045;1208;74359;-65
2021/07/21 07:15:19;;;;;;;7.20;3.90;;;;;;;28.43;48.14;100725.52;93030;1207;80235;-58
2021/07/21 07:17:28;;;;;;;4.00;3.00;;;;;;;28.65;47.01;100719.42;93040;1206;65817;-59
2021/07/21 07:19:36;;;;;;;7.00;3.50;;;;;;;28.55;46.65;100728.70;93062;1208;68948;-60
2021/07/21 07:21:44;;;;;;;5.00;3.60;;;;;;;28.61;45.40;100723.89;93067;1202;87302;-59
2021/07/21 07:23:53;;;;;;;4.70;3.30;;;;;;;28.85;45.31;100729.38;93056;1202;75995;-58
2021/07/21 07:26:01;;;;;;;3.80;3.00;;;;;;;29.27;44.60;100712.56;93023;1208;80588;-68
2021/07/21 07:28:09;;;;;;;4.70;3.20;;;;;;;29.30;43.61;100722.26;93031;1208;66298;-61
2021/07/21 07:30:18;;;;;;;4.00;3.20;;;;;;;29.48;43.97;100711.05;93044;1214;68836;-59
2021/07/21 07:32:26;;;;;;;5.40;3.30;;;;;;;29.62;42.91;100717.47;93038;1208;85364;-60
2021/07/21 07:34:34;;;;;;;5.80;3.40;;;;;;;30.28;43.31;100714.17;93043;1208;74786;-59
2021/07/21 07:36:41;;;;;;;4.00;3.20;;;;;;;30.91;43.03;100722.47;93032;1207;82502;-59
2021/07/21 07:38:49;;;;;;;4.60;3.30;;;;;;;31.42;41.97;100732.38;93033;1208;66115;-59
2021/07/21 07:40:57;;;;;;;6.50;3.50;;;;;;;31.80;41.85;100714.02;93039;1208;67893;-61
2021/07/21 07:43:04;;;;;;;4.50;2.90;;;;;;;32.18;41.01;100730.27;93032;1208;87082;-61
2021/07/21 07:45:14;;;;;;;5.50;3.30;;;;;;;32.13;39.49;100724.84;93043;1208;74243;-60
2021/07/21 07:47:22;;;;;;;4.40;3.50;;;;;;;32.15;39.83;100717.77;93048;1208;81062;-59
2021/07/21 07:49:33;;;;;;;3.50;2.80;;;;;;;32.48;38.32;100723.75;93033;1208;67771;-60
2021/07/21 07:51:40;;;;;;;4.70;3.00;;;;;;;32.73;38.84;100716.55;93010;1208;69040;-60
2021/07/21 07:53:48;;;;;;;4.90;3.40;;;;;;;32.96;37.51;100721.66;93006;1208;86947;-61
2021/07/21 07:55:55;;;;;;;4.40;3.20;;;;;;;33.49;37.31;100712.83;93038;1208;74526;-61
2021/07/21 07:58:03;;;;;;;4.90;2.90;;;;;;;33.94;36.52;100715.98;93034;1208;81249;-60
2021/07/21 08:00:17;;;;;;;3.90;2.80;;;;;;;34.20;36.23;100713.07;93034;1208;66334;-60
2021/07/21 08:02:24;;;;;;;4.90;2.90;;;;;;;34.69;35.15;100723.47;93068;1202;69217;-61
2021/07/21 08:04:32;;;;;;;5.60;3.20;;;;;;;34.84;35.15;100722.00;93039;1208;86502;-60
2021/07/21 08:06:40;;;;;;;5.30;3.30;;;;;;;34.63;33.92;100712.78;93068;1202;76124;-66
2021/07/21 08:08:48;;;;;;;5.30;3.40;;;;;;;34.90;34.55;100715.02;93027;1206;81187;-67
2021/07/21 08:10:56;;;;;;;4.50;3.30;;;;;;;34.91;33.95;100711.06;93005;1208;66917;-62
2021/07/21 08:13:03;;;;;;;4.00;2.80;;;;;;;34.90;33.52;100709.41;93023;1208;69623;-61
2021/07/21 08:15:14;;;;;;;4.10;2.80;;;;;;;35.19;34.50;100714.92;93102;1215;86877;-62
2021/07/21 08:17:22;;;;;;;3.50;2.90;;;;;;;35.61;31.46;100706.38;93021;1208;75601;-62
2021/07/21 08:19:29;;;;;;;4.10;2.90;;;;;;;35.27;32.28;100714.00;92958;1208;80952;-61
2021/07/21 08:21:38;;;;;;;3.60;2.90;;;;;;;35.31;33.06;100712.16;93002;1208;68062;-59
2021/07/21 08:23:45;;;;;;;4.00;2.70;;;;;;;35.82;32.10;100715.56;93047;1208;68954;-59
2021/07/21 08:25:53;;;;;;;4.10;2.70;;;;;;;35.73;32.81;100712.85;93011;1213;86944;-60
2021/07/21 08:28:01;;;;;;;3.40;2.70;;;;;;;35.81;32.14;100708.28;93029;1214;76857;-59
2021/07/21 08:30:12;;;;;;;4.50;2.50;;;;;;;36.11;31.79;100712.53;93025;1203;82277;-59
2021/07/21 08:32:20;;;;;;;4.20;3.10;;;;;;;35.99;30.85;100715.30;93026;1203;66584;-59
2021/07/21 08:34:27;;;;;;;4.30;2.80;;;;;;;36.28;31.38;100714.27;93050;1213;68157;-61
2021/07/21 08:36:36;;;;;;;5.40;3.30;;;;;;;36.04;30.49;100701.05;92976;1214;86680;-62
2021/07/21 08:38:44;;;;;;;4.60;3.00;;;;;;;35.54;31.26;100709.75;93043;1207;73512;-61
2021/07/21 08:40:57;;;;;;;4.80;3.00;;;;;;;35.60;31.94;100707.56;93008;1208;79991;-62
2021/07/21 08:43:06;;;;;;;3.80;3.10;;;;;;;35.02;31.84;100715.08;93016;1208;65859;-62
2021/07/21 08:45:16;;;;;;;2.90;2.40;;;;;;;34.42;32.28;100711.93;93050;1208;67880;-61
2021/07/21 08:47:23;;;;;;;3.80;2.90;;;;;;;34.83;32.28;100706.34;93012;1208;88239;-62
2021/07/21 08:49:31;;;;;;;4.90;3.10;;;;;;;35.18;32.11;100712.47;93010;1211;74788;-60
2021/07/21 08:51:41;;;;;;;5.00;2.90;;;;;;;34.36;31.85;100716.92;93022;1214;80837;-59
2021/07/21 08:53:49;;;;;;;5.30;3.10;;;;;;;34.09;32.15;100718.22;93036;1208;67359;-60
2021/07/21 08:55:57;;;;;;;3.90;2.70;;;;;;;34.27;33.64;100716.97;93035;1208;69366;-62
2021/07/21 08:58:05;;;;;;;4.20;2.80;;;;;;;34.73;32.28;100715.16;93055;1202;87430;-62
2021/07/21 09:00:17;;;;;;;3.10;2.60;;;;;;;34.60;32.20;100714.29;93051;1208;74354;-59
2021/07/21 09:02:24;;;;;;;4.70;2.80;;;;;;;33.76;32.14;100717.23;93025;1208;81050;-59
2021/07/21 09:04:33;;;;;;;6.10;2.90;;;;;;;32.98;32.59;100718.52;93013;1213;65543;-62
2021/07/21 09:06:42;;;;;;;5.20;3.30;;;;;;;33.07;33.46;100720.17;93050;1208;69068;-61
2021/07/21 09:08:50;;;;;;;3.90;3.00;;;;;;;32.79;33.56;100721.66;93037;1208;85701;-62
2021/07/21 09:10:58;;;;;;;3.50;2.90;;;;;;;33.05;33.02;100727.23;93008;1208;73884;-62
2021/07/21 09:13:09;;;;;;;3.80;2.90;;;;;;;33.44;33.04;100714.98;93006;1208;81840;-62
2021/07/21 09:15:22;;;;;;;5.70;3.30;;;;;;;33.33;33.15;100722.11;93009;1208;65674;-61
2021/07/21 09:17:31;;;;;;;5.10;3.20;;;;;;;33.13;33.34;100732.02;93034;1208;68460;-61
2021/07/21 09:19:41;;;;;;;4.00;3.20;;;;;;;32.48;33.31;100726.55;93071;1208;86714;-62
2021/07/21 09:21:48;;;;;;;4.60;3.10;;;;;;;31.81;33.08;100724.03;93028;1208;75533;-63
2021/07/21 09:23:58;;;;;;;5.60;3.40;;;;;;;31.54;34.54;100719.48;93033;1205;84412;-62
2021/07/21 09:26:08;;;;;;;4.20;3.00;;;;;;;30.64;34.71;100721.75;93008;1208;66412;-59
2021/07/21 09:28:16;;;;;;;5.60;3.40;;;;;;;29.85;35.72;100717.61;93031;1208;69037;-60
2021/07/21 09:30:29;;;;;;;4.50;3.20;;;;;;;29.35;36.77;100728.56;93049;1208;87578;-60
2021/07/21 09:32:57;;;;;;;4.60;3.40;;;;;;;29.69;38.11;100717.91;93037;1208;74286;-59
2021/07/21 09:35:06;;;;;;;4.00;3.20;;;;;;;30.20;38.94;100728.02;93048;1208;81039;-62
2021/07/21 09:37:14;;;;;;;5.50;3.40;;;;;;;29.96;37.33;100730.20;93036;1208;66676;-61
2021/07/21 09:39:35;;;;;;;4.90;3.30;;;;;;;29.49;38.54;100728.59;93015;1208;69005;-61
2021/07/21 09:41:53;;;;;;;4.60;3.20;;;;;;;29.09;38.44;100728.14;93021;1208;86952;-62
2021/07/21 09:44:06;;;;;;;5.70;3.60;;;;;;;29.29;39.22;100729.78;93056;1208;74671;-61
2021/07/21 09:46:16;;;;;;;5.10;3.20;;;;;;;29.62;39.42;100727.77;93051;1203;81488;-59
2021/07/21 09:48:39;;;;;;;4.70;3.30;;;;;;;29.97;38.77;100727.09;93013;1208;66407;-59
2021/07/21 09:50:51;;;;;;;5.10;2.90;;;;;;;30.13;38.20;100722.05;93016;1208;68594;-62
2021/07/21 09:53:04;;;;;;;4.90;2.90;;;;;;;30.21;38.24;100718.52;93044;1208;86628;-62
2021/07/21 09:55:15;;;;;;;6.80;3.40;;;;;;;30.12;37.78;100723.17;93025;1202;75068;-61
2021/07/21 09:57:23;;;;;;;4.80;3.10;;;;;;;29.31;37.85;100721.14;93045;1208;81200;-62
2021/07/21 09:59:33;;;;;;;4.30;3.00;;;;;;;28.69;38.40;100731.58;93024;1206;66026;-59
2021/07/21 10:01:42;;;;;;;3.20;2.60;;;;;;;28.63;38.87;100727.22;93008;1208;69046;-59
2021/07/21 10:03:50;;;;;;;3.60;2.80;;;;;;;28.81;39.21;100723.62;93029;1208;86545;-60
2021/07/21 10:06:05;;;;;;;4.30;3.00;;;;;;;28.92;39.20;100732.62;93035;1208;75305;-59
2021/07/21 10:08:29;;;;;;;5.30;2.90;;;;;;;29.12;39.06;100729.48;93041;1208;81724;-59
2021/07/21 10:10:37;;;;;;;3.70;3.10;;;;;;;29.48;39.58;100732.48;93004;1206;66428;-61